sensor_id;sensor_type;location;lat;lon;timestamp;temperature;humidity
7290;DHT22;63176;52.678;13.250;2022-10-23T00:00:30;11.60;1.00
7290;DHT22;63176;52.678;13.250;2022-10-23T00:02:55;11.50;1.00
7290;DHT22;63176;52.678;13.250;2022-10-23T00:05:21;11.60;1.00
7290;DHT22;63176;52.678;13.250;2022-10-23T00:07:52;11.60;1.00
7290;DHT22;63176;52.678;13.250;2022-10-23T00:10:19;11.60;1.00
7290;DHT22;63176;52.678;13.250;2022-10-23T00:12:46;11.60;1.00
7290;DHT22;63176;52.678;13.250;2022-10-23T00:15:12;11.60;1.00
7290;DHT22;63176;52.678;13.250;2022-10-23T00:17:38;11.60;1.00
7290;DHT22;63176;52.678;13.250;2022-10-23T00:20:06;11.70;1.00
7290;DHT22;63176;52.678;13.250;2022-10-23T00:22:32;11.70;1.00
7290;DHT22;63176;52.678;13.250;2022-10-23T00:24:57;11.70;1.00
7290;DHT22;63176;52.678;13.250;2022-10-23T00:27:23;11.70;1.00
7290;DHT22;63176;52.678;13.250;2022-10-23T00:29:49;11.70;1.00
7290;DHT22;63176;52.678;13.250;2022-10-23T00:32:15;11.60;1.00
7290;DHT22;63176;52.678;13.250;2022-10-23T00:34:40;11.60;1.00
7290;DHT22;63176;52.678;13.250;2022-10-23T00:37:06;11.60;1.00
7290;DHT22;63176;52.678;13.250;2022-10-23T00:39:31;11.60;1.00
7290;DHT22;63176;52.678;13.250;2022-10-23T00:41:57;11.60;1.00
7290;DHT22;63176;52.678;13.250;2022-10-23T00:46:48;11.70;1.00
7290;DHT22;63176;52.678;13.250;2022-10-23T00:49:14;11.70;1.00
7290;DHT22;63176;52.678;13.250;2022-10-23T00:51:47;11.70;1.00
7290;DHT22;63176;52.678;13.250;2022-10-23T00:54:17;11.70;1.00
7290;DHT22;63176;52.678;13.250;2022-10-23T00:56:43;11.60;1.00
7290;DHT22;63176;52.678;13.250;2022-10-23T00:59:10;11.70;1.00
7290;DHT22;63176;52.678;13.250;2022-10-23T01:01:36;11.70;1.00
7290;DHT22;63176;52.678;13.250;2022-10-23T01:04:04;11.70;1.00
7290;DHT22;63176;52.678;13.250;2022-10-23T01:06:52;11.80;1.00
7290;DHT22;63176;52.678;13.250;2022-10-23T01:12:14;11.80;1.00
7290;DHT22;63176;52.678;13.250;2022-10-23T01:14:54;11.90;1.00
7290;DHT22;63176;52.678;13.250;2022-10-23T01:28:01;12.00;1.00
7290;DHT22;63176;52.678;13.250;2022-10-23T01:30:29;12.00;1.00
7290;DHT22;63176;52.678;13.250;2022-10-23T01:33:04;12.00;1.00
7290;DHT22;63176;52.678;13.250;2022-10-23T01:35:35;12.00;1.00
7290;DHT22;63176;52.678;13.250;2022-10-23T01:41:02;12.00;1.00
7290;DHT22;63176;52.678;13.250;2022-10-23T01:43:36;12.10;1.00
7290;DHT22;63176;52.678;13.250;2022-10-23T01:46:06;12.10;1.00
7290;DHT22;63176;52.678;13.250;2022-10-23T01:48:34;12.10;1.00
7290;DHT22;63176;52.678;13.250;2022-10-23T01:51:03;12.10;1.00
7290;DHT22;63176;52.678;13.250;2022-10-23T01:53:32;12.10;1.00
7290;DHT22;63176;52.678;13.250;2022-10-23T01:56:00;12.10;1.00
7290;DHT22;63176;52.678;13.250;2022-10-23T01:58:28;12.10;1.00
7290;DHT22;63176;52.678;13.250;2022-10-23T02:00:58;12.10;1.00
7290;DHT22;63176;52.678;13.250;2022-10-23T02:03:27;12.00;1.00
7290;DHT22;63176;52.678;13.250;2022-10-23T02:05:54;12.10;1.00
7290;DHT22;63176;52.678;13.250;2022-10-23T02:08:19;12.10;1.00
7290;DHT22;63176;52.678;13.250;2022-10-23T02:10:54;12.00;1.00
7290;DHT22;63176;52.678;13.250;2022-10-23T02:24:13;11.80;1.00
7290;DHT22;63176;52.678;13.250;2022-10-23T02:26:59;11.80;1.00
7290;DHT22;63176;52.678;13.250;2022-10-23T02:30:01;11.80;1.00
7290;DHT22;63176;52.678;13.250;2022-10-23T02:32:26;11.80;1.00
7290;DHT22;63176;52.678;13.250;2022-10-23T02:34:53;11.80;1.00
7290;DHT22;63176;52.678;13.250;2022-10-23T02:37:19;11.70;1.00
7290;DHT22;63176;52.678;13.250;2022-10-23T02:39:46;11.70;1.00
7290;DHT22;63176;52.678;13.250;2022-10-23T02:42:26;11.60;1.00
7290;DHT22;63176;52.678;13.250;2022-10-23T02:50:53;11.60;1.00
7290;DHT22;63176;52.678;13.250;2022-10-23T02:53:35;11.70;1.00
7290;DHT22;63176;52.678;13.250;2022-10-23T02:56:08;11.70;1.00
7290;DHT22;63176;52.678;13.250;2022-10-23T02:58:58;11.70;1.00
7290;DHT22;63176;52.678;13.250;2022-10-23T03:01:37;11.70;1.00
7290;DHT22;63176;52.678;13.250;2022-10-23T03:04:07;11.60;1.00
7290;DHT22;63176;52.678;13.250;2022-10-23T03:06:35;11.60;1.00
7290;DHT22;63176;52.678;13.250;2022-10-23T03:09:08;11.60;1.00
7290;DHT22;63176;52.678;13.250;2022-10-23T03:11:34;11.60;1.00
7290;DHT22;63176;52.678;13.250;2022-10-23T03:14:00;11.50;1.00
7290;DHT22;63176;52.678;13.250;2022-10-23T03:16:26;11.50;1.00
7290;DHT22;63176;52.678;13.250;2022-10-23T03:18:52;11.40;1.00
7290;DHT22;63176;52.678;13.250;2022-10-23T03:21:18;11.40;1.00
7290;DHT22;63176;52.678;13.250;2022-10-23T03:23:43;11.40;1.00
7290;DHT22;63176;52.678;13.250;2022-10-23T03:26:09;11.30;1.00
7290;DHT22;63176;52.678;13.250;2022-10-23T03:28:35;11.20;1.00
7290;DHT22;63176;52.678;13.250;2022-10-23T03:31:02;11.10;1.00
7290;DHT22;63176;52.678;13.250;2022-10-23T03:33:28;11.10;1.00
7290;DHT22;63176;52.678;13.250;2022-10-23T03:35:54;11.10;1.00
7290;DHT22;63176;52.678;13.250;2022-10-23T03:38:20;11.00;1.00
7290;DHT22;63176;52.678;13.250;2022-10-23T03:40:45;11.00;99.90
7290;DHT22;63176;52.678;13.250;2022-10-23T03:43:11;10.90;99.90
7290;DHT22;63176;52.678;13.250;2022-10-23T03:45:36;10.90;99.90
7290;DHT22;63176;52.678;13.250;2022-10-23T03:48:04;10.80;99.90
7290;DHT22;63176;52.678;13.250;2022-10-23T03:50:29;10.80;99.90
7290;DHT22;63176;52.678;13.250;2022-10-23T03:52:55;10.80;99.90
7290;DHT22;63176;52.678;13.250;2022-10-23T03:55:21;10.70;99.90
7290;DHT22;63176;52.678;13.250;2022-10-23T03:57:47;10.80;99.90
7290;DHT22;63176;52.678;13.250;2022-10-23T04:00:13;10.70;99.90
7290;DHT22;63176;52.678;13.250;2022-10-23T04:02:39;10.70;99.90
7290;DHT22;63176;52.678;13.250;2022-10-23T04:05:05;10.60;99.90
7290;DHT22;63176;52.678;13.250;2022-10-23T04:07:30;10.60;99.90
7290;DHT22;63176;52.678;13.250;2022-10-23T04:09:56;10.60;99.90
7290;DHT22;63176;52.678;13.250;2022-10-23T04:12:21;10.50;99.90
7290;DHT22;63176;52.678;13.250;2022-10-23T04:14:47;10.50;99.90
7290;DHT22;63176;52.678;13.250;2022-10-23T04:17:13;10.50;99.90
7290;DHT22;63176;52.678;13.250;2022-10-23T04:19:38;10.50;99.90
7290;DHT22;63176;52.678;13.250;2022-10-23T04:22:04;10.50;99.90
7290;DHT22;63176;52.678;13.250;2022-10-23T04:24:30;10.40;99.90
7290;DHT22;63176;52.678;13.250;2022-10-23T04:26:55;10.30;99.90
7290;DHT22;63176;52.678;13.250;2022-10-23T04:29:21;10.30;99.90
7290;DHT22;63176;52.678;13.250;2022-10-23T04:31:49;10.30;99.90
7290;DHT22;63176;52.678;13.250;2022-10-23T04:34:16;10.20;99.90
7290;DHT22;63176;52.678;13.250;2022-10-23T04:36:42;10.20;99.90
7290;DHT22;63176;52.678;13.250;2022-10-23T04:39:09;10.20;99.90
7290;DHT22;63176;52.678;13.250;2022-10-23T04:41:34;10.10;99.90
7290;DHT22;63176;52.678;13.250;2022-10-23T04:44:01;10.10;99.90
7290;DHT22;63176;52.678;13.250;2022-10-23T04:46:26;10.00;99.90
7290;DHT22;63176;52.678;13.250;2022-10-23T04:48:52;10.00;99.90
7290;DHT22;63176;52.678;13.250;2022-10-23T04:51:18;10.00;99.90
7290;DHT22;63176;52.678;13.250;2022-10-23T04:53:43;9.90;99.90
7290;DHT22;63176;52.678;13.250;2022-10-23T04:56:13;9.90;99.90
7290;DHT22;63176;52.678;13.250;2022-10-23T04:58:40;9.90;99.90
7290;DHT22;63176;52.678;13.250;2022-10-23T05:01:06;9.90;99.90
7290;DHT22;63176;52.678;13.250;2022-10-23T05:03:35;9.90;99.90
7290;DHT22;63176;52.678;13.250;2022-10-23T05:06:00;9.90;99.90
7290;DHT22;63176;52.678;13.250;2022-10-23T05:08:27;9.80;99.90
7290;DHT22;63176;52.678;13.250;2022-10-23T05:10:53;9.70;99.90
7290;DHT22;63176;52.678;13.250;2022-10-23T05:13:19;9.70;99.90
7290;DHT22;63176;52.678;13.250;2022-10-23T05:15:47;9.70;99.90
7290;DHT22;63176;52.678;13.250;2022-10-23T05:18:18;9.60;99.90
7290;DHT22;63176;52.678;13.250;2022-10-23T05:20:45;9.60;99.90
7290;DHT22;63176;52.678;13.250;2022-10-23T05:23:15;9.70;99.90
7290;DHT22;63176;52.678;13.250;2022-10-23T05:25:42;9.70;99.90
7290;DHT22;63176;52.678;13.250;2022-10-23T05:28:08;9.60;99.90
7290;DHT22;63176;52.678;13.250;2022-10-23T05:30:34;9.60;99.90
7290;DHT22;63176;52.678;13.250;2022-10-23T05:33:00;9.60;99.90
7290;DHT22;63176;52.678;13.250;2022-10-23T05:35:28;9.50;99.90
7290;DHT22;63176;52.678;13.250;2022-10-23T05:37:55;9.50;99.90
7290;DHT22;63176;52.678;13.250;2022-10-23T05:40:21;9.50;99.90
7290;DHT22;63176;52.678;13.250;2022-10-23T05:42:48;9.50;99.90
7290;DHT22;63176;52.678;13.250;2022-10-23T05:45:14;9.50;99.90
7290;DHT22;63176;52.678;13.250;2022-10-23T05:47:43;9.50;99.90
7290;DHT22;63176;52.678;13.250;2022-10-23T05:50:08;9.50;99.90
7290;DHT22;63176;52.678;13.250;2022-10-23T05:52:34;9.50;99.90
7290;DHT22;63176;52.678;13.250;2022-10-23T05:55:00;9.50;99.90
7290;DHT22;63176;52.678;13.250;2022-10-23T05:57:25;9.50;99.90
7290;DHT22;63176;52.678;13.250;2022-10-23T05:59:51;9.50;99.90
7290;DHT22;63176;52.678;13.250;2022-10-23T06:02:17;9.50;99.90
7290;DHT22;63176;52.678;13.250;2022-10-23T06:04:42;9.40;99.90
7290;DHT22;63176;52.678;13.250;2022-10-23T06:07:08;9.40;99.90
7290;DHT22;63176;52.678;13.250;2022-10-23T06:09:34;9.40;99.90
7290;DHT22;63176;52.678;13.250;2022-10-23T06:12:02;9.30;99.90
7290;DHT22;63176;52.678;13.250;2022-10-23T06:14:28;9.30;99.90
7290;DHT22;63176;52.678;13.250;2022-10-23T06:16:54;9.30;99.90
7290;DHT22;63176;52.678;13.250;2022-10-23T06:19:20;9.30;99.90
7290;DHT22;63176;52.678;13.250;2022-10-23T06:21:45;9.30;99.90
7290;DHT22;63176;52.678;13.250;2022-10-23T06:24:11;9.30;99.90
7290;DHT22;63176;52.678;13.250;2022-10-23T06:26:36;9.30;99.90
7290;DHT22;63176;52.678;13.250;2022-10-23T06:29:03;9.30;99.90
7290;DHT22;63176;52.678;13.250;2022-10-23T06:31:29;9.30;99.90
7290;DHT22;63176;52.678;13.250;2022-10-23T06:33:58;9.30;99.90
7290;DHT22;63176;52.678;13.250;2022-10-23T06:36:24;9.40;99.90
7290;DHT22;63176;52.678;13.250;2022-10-23T06:38:50;9.40;99.90
7290;DHT22;63176;52.678;13.250;2022-10-23T06:41:18;9.40;99.90
7290;DHT22;63176;52.678;13.250;2022-10-23T06:43:46;9.40;99.90
7290;DHT22;63176;52.678;13.250;2022-10-23T06:46:12;9.50;99.90
7290;DHT22;63176;52.678;13.250;2022-10-23T06:48:41;9.60;99.90
7290;DHT22;63176;52.678;13.250;2022-10-23T06:51:10;9.60;99.90
7290;DHT22;63176;52.678;13.250;2022-10-23T06:53:37;9.70;99.90
7290;DHT22;63176;52.678;13.250;2022-10-23T06:56:04;9.70;99.90
7290;DHT22;63176;52.678;13.250;2022-10-23T06:58:31;9.80;99.90
7290;DHT22;63176;52.678;13.250;2022-10-23T07:00:59;9.90;99.90
7290;DHT22;63176;52.678;13.250;2022-10-23T07:03:26;10.00;99.90
7290;DHT22;63176;52.678;13.250;2022-10-23T07:05:52;10.10;99.90
7290;DHT22;63176;52.678;13.250;2022-10-23T07:08:18;10.20;99.90
7290;DHT22;63176;52.678;13.250;2022-10-23T07:10:43;10.30;99.90
7290;DHT22;63176;52.678;13.250;2022-10-23T07:13:10;10.30;99.90
7290;DHT22;63176;52.678;13.250;2022-10-23T07:15:37;10.40;99.90
7290;DHT22;63176;52.678;13.250;2022-10-23T07:18:03;10.50;99.90
7290;DHT22;63176;52.678;13.250;2022-10-23T07:20:32;10.60;99.90
7290;DHT22;63176;52.678;13.250;2022-10-23T07:22:58;10.70;99.90
7290;DHT22;63176;52.678;13.250;2022-10-23T07:25:28;10.80;99.90
7290;DHT22;63176;52.678;13.250;2022-10-23T07:28:06;10.90;99.90
7290;DHT22;63176;52.678;13.250;2022-10-23T07:30:32;11.00;99.90
7290;DHT22;63176;52.678;13.250;2022-10-23T07:32:58;11.00;99.90
7290;DHT22;63176;52.678;13.250;2022-10-23T07:35:24;11.10;99.90
7290;DHT22;63176;52.678;13.250;2022-10-23T07:37:50;11.20;99.90
7290;DHT22;63176;52.678;13.250;2022-10-23T07:40:15;11.20;99.90
7290;DHT22;63176;52.678;13.250;2022-10-23T07:42:43;11.30;99.90
7290;DHT22;63176;52.678;13.250;2022-10-23T07:45:09;11.30;99.90
7290;DHT22;63176;52.678;13.250;2022-10-23T07:47:35;11.40;99.90
7290;DHT22;63176;52.678;13.250;2022-10-23T07:50:01;11.50;99.90
7290;DHT22;63176;52.678;13.250;2022-10-23T07:52:27;11.60;1.00
7290;DHT22;63176;52.678;13.250;2022-10-23T07:54:53;11.70;1.00
7290;DHT22;63176;52.678;13.250;2022-10-23T07:57:19;11.80;1.00
7290;DHT22;63176;52.678;13.250;2022-10-23T07:59:45;11.90;1.00
7290;DHT22;63176;52.678;13.250;2022-10-23T08:02:12;12.00;1.00
7290;DHT22;63176;52.678;13.250;2022-10-23T08:04:39;12.10;1.00
7290;DHT22;63176;52.678;13.250;2022-10-23T08:07:05;12.20;1.00
7290;DHT22;63176;52.678;13.250;2022-10-23T08:09:30;12.40;1.00
7290;DHT22;63176;52.678;13.250;2022-10-23T08:11:56;12.50;1.00
7290;DHT22;63176;52.678;13.250;2022-10-23T08:14:22;12.60;1.00
7290;DHT22;63176;52.678;13.250;2022-10-23T08:16:47;12.80;1.00
7290;DHT22;63176;52.678;13.250;2022-10-23T08:19:13;12.90;1.00
7290;DHT22;63176;52.678;13.250;2022-10-23T08:21:39;13.10;1.00
7290;DHT22;63176;52.678;13.250;2022-10-23T08:24:05;13.20;1.00
7290;DHT22;63176;52.678;13.250;2022-10-23T08:26:30;13.40;1.00
7290;DHT22;63176;52.678;13.250;2022-10-23T08:29:00;13.50;1.00
7290;DHT22;63176;52.678;13.250;2022-10-23T08:31:25;13.50;1.00
7290;DHT22;63176;52.678;13.250;2022-10-23T08:33:51;13.50;1.00
7290;DHT22;63176;52.678;13.250;2022-10-23T08:36:23;13.50;1.00
7290;DHT22;63176;52.678;13.250;2022-10-23T08:38:50;13.50;1.00
7290;DHT22;63176;52.678;13.250;2022-10-23T08:44:29;13.50;1.00
7290;DHT22;63176;52.678;13.250;2022-10-23T08:47:08;13.50;1.00
7290;DHT22;63176;52.678;13.250;2022-10-23T08:49:52;13.50;1.00
7290;DHT22;63176;52.678;13.250;2022-10-23T08:55:16;13.50;1.00
7290;DHT22;63176;52.678;13.250;2022-10-23T09:00:30;13.50;1.00
7290;DHT22;63176;52.678;13.250;2022-10-23T09:03:00;13.50;1.00
7290;DHT22;63176;52.678;13.250;2022-10-23T09:05:39;13.60;1.00
7290;DHT22;63176;52.678;13.250;2022-10-23T09:08:56;13.60;1.00
7290;DHT22;63176;52.678;13.250;2022-10-23T09:11:31;13.70;1.00
7290;DHT22;63176;52.678;13.250;2022-10-23T09:14:25;13.80;1.00
7290;DHT22;63176;52.678;13.250;2022-10-23T09:17:15;14.00;1.00
7290;DHT22;63176;52.678;13.250;2022-10-23T09:19:45;14.00;1.00
7290;DHT22;63176;52.678;13.250;2022-10-23T09:22:11;14.10;1.00
7290;DHT22;63176;52.678;13.250;2022-10-23T09:24:41;14.20;1.00
7290;DHT22;63176;52.678;13.250;2022-10-23T09:27:15;14.30;1.00
7290;DHT22;63176;52.678;13.250;2022-10-23T09:29:48;14.40;1.00
7290;DHT22;63176;52.678;13.250;2022-10-23T09:32:15;14.50;1.00
7290;DHT22;63176;52.678;13.250;2022-10-23T09:34:53;14.60;99.90
7290;DHT22;63176;52.678;13.250;2022-10-23T09:37:27;14.70;99.90
7290;DHT22;63176;52.678;13.250;2022-10-23T09:40:17;14.80;99.90
7290;DHT22;63176;52.678;13.250;2022-10-23T09:42:56;14.90;99.90
7290;DHT22;63176;52.678;13.250;2022-10-23T09:45:34;14.90;99.90
7290;DHT22;63176;52.678;13.250;2022-10-23T09:48:12;14.90;99.90
7290;DHT22;63176;52.678;13.250;2022-10-23T09:53:25;14.90;99.90
7290;DHT22;63176;52.678;13.250;2022-10-23T09:55:53;14.90;99.90
7290;DHT22;63176;52.678;13.250;2022-10-23T09:58:24;15.00;99.90
7290;DHT22;63176;52.678;13.250;2022-10-23T10:00:51;15.00;99.90
7290;DHT22;63176;52.678;13.250;2022-10-23T10:03:20;15.20;99.90
7290;DHT22;63176;52.678;13.250;2022-10-23T10:05:57;15.20;99.90
7290;DHT22;63176;52.678;13.250;2022-10-23T10:21:49;15.50;99.90
7290;DHT22;63176;52.678;13.250;2022-10-23T10:30:18;15.60;99.90
7290;DHT22;63176;52.678;13.250;2022-10-23T10:45:47;15.60;99.90
7290;DHT22;63176;52.678;13.250;2022-10-23T10:48:40;15.60;99.90
7290;DHT22;63176;52.678;13.250;2022-10-23T10:51:13;15.70;99.90
7290;DHT22;63176;52.678;13.250;2022-10-23T10:56:17;15.70;99.90
7290;DHT22;63176;52.678;13.250;2022-10-23T10:59:30;15.90;99.90
7290;DHT22;63176;52.678;13.250;2022-10-23T11:01:56;16.00;99.90
7290;DHT22;63176;52.678;13.250;2022-10-23T11:04:29;16.00;99.90
7290;DHT22;63176;52.678;13.250;2022-10-23T11:06:57;16.10;99.90
7290;DHT22;63176;52.678;13.250;2022-10-23T11:09:28;16.10;99.90
7290;DHT22;63176;52.678;13.250;2022-10-23T11:11:54;16.10;99.90
7290;DHT22;63176;52.678;13.250;2022-10-23T11:14:22;16.10;99.90
7290;DHT22;63176;52.678;13.250;2022-10-23T11:17:16;16.20;99.90
7290;DHT22;63176;52.678;13.250;2022-10-23T11:20:03;16.30;99.90
7290;DHT22;63176;52.678;13.250;2022-10-23T11:22:44;16.40;99.90
7290;DHT22;63176;52.678;13.250;2022-10-23T11:32:10;16.50;99.90
7290;DHT22;63176;52.678;13.250;2022-10-23T11:34:03;16.50;99.90
7290;DHT22;63176;52.678;13.250;2022-10-23T11:39:26;16.60;99.90
7290;DHT22;63176;52.678;13.250;2022-10-23T11:41:53;16.60;99.90
7290;DHT22;63176;52.678;13.250;2022-10-23T11:44:42;16.60;99.90
7290;DHT22;63176;52.678;13.250;2022-10-23T11:49:49;16.60;99.90
7290;DHT22;63176;52.678;13.250;2022-10-23T11:52:23;16.60;99.90
7290;DHT22;63176;52.678;13.250;2022-10-23T11:55:00;16.70;99.90
7290;DHT22;63176;52.678;13.250;2022-10-23T11:57:26;16.80;99.90
7290;DHT22;63176;52.678;13.250;2022-10-23T11:59:53;16.80;99.90
7290;DHT22;63176;52.678;13.250;2022-10-23T12:02:30;16.80;99.90
7290;DHT22;63176;52.678;13.250;2022-10-23T12:05:01;16.80;99.90
7290;DHT22;63176;52.678;13.250;2022-10-23T12:07:28;16.80;99.90
7290;DHT22;63176;52.678;13.250;2022-10-23T12:10:04;16.90;99.90
7290;DHT22;63176;52.678;13.250;2022-10-23T12:12:38;16.90;99.90
7290;DHT22;63176;52.678;13.250;2022-10-23T12:17:41;16.90;99.90
7290;DHT22;63176;52.678;13.250;2022-10-23T12:25:26;17.00;99.90
7290;DHT22;63176;52.678;13.250;2022-10-23T12:37:18;17.00;99.90
7290;DHT22;63176;52.678;13.250;2022-10-23T12:39:57;17.10;99.90
7290;DHT22;63176;52.678;13.250;2022-10-23T12:42:25;17.10;99.90
7290;DHT22;63176;52.678;13.250;2022-10-23T12:45:19;17.10;99.90
7290;DHT22;63176;52.678;13.250;2022-10-23T12:47:47;17.10;99.90
7290;DHT22;63176;52.678;13.250;2022-10-23T12:50:25;17.10;99.90
7290;DHT22;63176;52.678;13.250;2022-10-23T12:52:52;17.20;99.90
7290;DHT22;63176;52.678;13.250;2022-10-23T12:55:18;17.20;99.90
7290;DHT22;63176;52.678;13.250;2022-10-23T12:57:44;17.20;99.90
7290;DHT22;63176;52.678;13.250;2022-10-23T13:00:19;17.20;99.90
7290;DHT22;63176;52.678;13.250;2022-10-23T13:02:45;17.10;99.90
7290;DHT22;63176;52.678;13.250;2022-10-23T13:05:16;17.00;99.90
7290;DHT22;63176;52.678;13.250;2022-10-23T13:07:44;17.00;99.90
7290;DHT22;63176;52.678;13.250;2022-10-23T13:10:17;17.00;99.90
7290;DHT22;63176;52.678;13.250;2022-10-23T13:12:54;17.00;99.90
7290;DHT22;63176;52.678;13.250;2022-10-23T13:15:21;17.00;99.90
7290;DHT22;63176;52.678;13.250;2022-10-23T13:20:23;17.00;99.90
7290;DHT22;63176;52.678;13.250;2022-10-23T13:23:32;17.00;99.90
7290;DHT22;63176;52.678;13.250;2022-10-23T13:26:00;16.90;99.90
7290;DHT22;63176;52.678;13.250;2022-10-23T13:28:27;16.90;99.90
7290;DHT22;63176;52.678;13.250;2022-10-23T13:33:41;16.80;99.90
7290;DHT22;63176;52.678;13.250;2022-10-23T13:38:41;16.80;99.90
7290;DHT22;63176;52.678;13.250;2022-10-23T13:41:15;16.70;99.90
7290;DHT22;63176;52.678;13.250;2022-10-23T13:43:42;16.80;99.90
7290;DHT22;63176;52.678;13.250;2022-10-23T13:46:16;16.90;99.90
7290;DHT22;63176;52.678;13.250;2022-10-23T13:48:42;16.90;99.90
7290;DHT22;63176;52.678;13.250;2022-10-23T13:51:14;16.90;99.90
7290;DHT22;63176;52.678;13.250;2022-10-23T13:53:43;16.90;99.90
7290;DHT22;63176;52.678;13.250;2022-10-23T13:56:11;16.90;99.90
7290;DHT22;63176;52.678;13.250;2022-10-23T13:58:37;16.90;99.90
7290;DHT22;63176;52.678;13.250;2022-10-23T14:01:03;16.80;99.90
7290;DHT22;63176;52.678;13.250;2022-10-23T14:03:29;16.80;99.90
7290;DHT22;63176;52.678;13.250;2022-10-23T14:05:54;16.80;99.90
7290;DHT22;63176;52.678;13.250;2022-10-23T14:08:20;16.80;99.90
7290;DHT22;63176;52.678;13.250;2022-10-23T14:10:46;16.70;99.90
7290;DHT22;63176;52.678;13.250;2022-10-23T14:13:11;16.70;99.90
7290;DHT22;63176;52.678;13.250;2022-10-23T14:15:37;16.70;99.90
7290;DHT22;63176;52.678;13.250;2022-10-23T14:18:03;16.70;99.90
7290;DHT22;63176;52.678;13.250;2022-10-23T14:20:29;16.70;99.90
7290;DHT22;63176;52.678;13.250;2022-10-23T14:22:54;16.70;99.90
7290;DHT22;63176;52.678;13.250;2022-10-23T14:25:21;16.60;99.90
7290;DHT22;63176;52.678;13.250;2022-10-23T14:27:47;16.60;99.90
7290;DHT22;63176;52.678;13.250;2022-10-23T14:30:12;16.60;99.90
7290;DHT22;63176;52.678;13.250;2022-10-23T14:32:38;16.50;99.90
7290;DHT22;63176;52.678;13.250;2022-10-23T14:35:04;16.40;99.90
7290;DHT22;63176;52.678;13.250;2022-10-23T14:37:31;16.30;99.90
7290;DHT22;63176;52.678;13.250;2022-10-23T14:39:57;16.20;99.90
7290;DHT22;63176;52.678;13.250;2022-10-23T14:42:24;16.20;99.90
7290;DHT22;63176;52.678;13.250;2022-10-23T14:44:50;16.10;99.90
7290;DHT22;63176;52.678;13.250;2022-10-23T14:47:16;16.10;99.90
7290;DHT22;63176;52.678;13.250;2022-10-23T14:49:47;16.10;99.90
7290;DHT22;63176;52.678;13.250;2022-10-23T14:52:14;16.10;99.90
7290;DHT22;63176;52.678;13.250;2022-10-23T14:54:40;16.00;99.90
7290;DHT22;63176;52.678;13.250;2022-10-23T14:57:06;16.00;99.90
7290;DHT22;63176;52.678;13.250;2022-10-23T14:59:32;15.90;99.90
7290;DHT22;63176;52.678;13.250;2022-10-23T15:01:57;15.90;99.90
7290;DHT22;63176;52.678;13.250;2022-10-23T15:04:23;15.80;99.90
7290;DHT22;63176;52.678;13.250;2022-10-23T15:06:49;15.80;99.90
7290;DHT22;63176;52.678;13.250;2022-10-23T15:09:15;15.80;99.90
7290;DHT22;63176;52.678;13.250;2022-10-23T15:11:42;15.90;99.90
7290;DHT22;63176;52.678;13.250;2022-10-23T15:14:08;15.80;99.90
7290;DHT22;63176;52.678;13.250;2022-10-23T15:16:33;15.80;99.90
7290;DHT22;63176;52.678;13.250;2022-10-23T15:19:06;15.70;99.90
7290;DHT22;63176;52.678;13.250;2022-10-23T15:21:32;15.70;99.90
7290;DHT22;63176;52.678;13.250;2022-10-23T15:23:59;15.60;99.90
7290;DHT22;63176;52.678;13.250;2022-10-23T15:26:25;15.60;99.90
7290;DHT22;63176;52.678;13.250;2022-10-23T15:28:56;15.60;99.90
7290;DHT22;63176;52.678;13.250;2022-10-23T15:33:55;15.40;99.90
7290;DHT22;63176;52.678;13.250;2022-10-23T15:36:21;15.40;99.90
7290;DHT22;63176;52.678;13.250;2022-10-23T15:38:48;15.30;99.90
7290;DHT22;63176;52.678;13.250;2022-10-23T15:41:16;15.20;99.90
7290;DHT22;63176;52.678;13.250;2022-10-23T15:43:42;15.20;99.90
7290;DHT22;63176;52.678;13.250;2022-10-23T15:46:08;15.10;99.90
7290;DHT22;63176;52.678;13.250;2022-10-23T15:48:34;15.00;99.90
7290;DHT22;63176;52.678;13.250;2022-10-23T15:50:59;14.90;99.90
7290;DHT22;63176;52.678;13.250;2022-10-23T15:53:25;14.80;99.90
7290;DHT22;63176;52.678;13.250;2022-10-23T15:55:51;14.80;99.90
7290;DHT22;63176;52.678;13.250;2022-10-23T15:58:16;14.70;99.90
7290;DHT22;63176;52.678;13.250;2022-10-23T16:00:42;14.60;99.90
7290;DHT22;63176;52.678;13.250;2022-10-23T16:03:08;14.50;99.90
7290;DHT22;63176;52.678;13.250;2022-10-23T16:05:35;14.50;99.90
7290;DHT22;63176;52.678;13.250;2022-10-23T16:08:00;14.50;99.90
7290;DHT22;63176;52.678;13.250;2022-10-23T16:10:26;14.50;99.90
7290;DHT22;63176;52.678;13.250;2022-10-23T16:12:52;14.40;99.90
7290;DHT22;63176;52.678;13.250;2022-10-23T16:15:17;14.40;99.90
7290;DHT22;63176;52.678;13.250;2022-10-23T16:17:43;14.40;99.90
7290;DHT22;63176;52.678;13.250;2022-10-23T16:20:09;14.40;99.90
7290;DHT22;63176;52.678;13.250;2022-10-23T16:22:35;14.30;99.90
7290;DHT22;63176;52.678;13.250;2022-10-23T16:25:01;14.30;99.90
7290;DHT22;63176;52.678;13.250;2022-10-23T16:27:27;14.30;99.90
7290;DHT22;63176;52.678;13.250;2022-10-23T16:29:52;14.30;99.90
7290;DHT22;63176;52.678;13.250;2022-10-23T16:32:18;14.30;99.90
7290;DHT22;63176;52.678;13.250;2022-10-23T16:34:44;14.30;99.90
7290;DHT22;63176;52.678;13.250;2022-10-23T16:37:10;14.30;99.90
7290;DHT22;63176;52.678;13.250;2022-10-23T16:39:36;14.30;99.90
7290;DHT22;63176;52.678;13.250;2022-10-23T16:42:02;14.30;99.90
7290;DHT22;63176;52.678;13.250;2022-10-23T16:44:28;14.40;99.90
7290;DHT22;63176;52.678;13.250;2022-10-23T16:46:53;14.40;99.90
7290;DHT22;63176;52.678;13.250;2022-10-23T16:49:19;14.40;99.90
7290;DHT22;63176;52.678;13.250;2022-10-23T16:51:45;14.40;99.90
7290;DHT22;63176;52.678;13.250;2022-10-23T16:54:10;14.40;99.90
7290;DHT22;63176;52.678;13.250;2022-10-23T16:56:36;14.40;99.90
7290;DHT22;63176;52.678;13.250;2022-10-23T16:59:02;14.40;99.90
7290;DHT22;63176;52.678;13.250;2022-10-23T17:01:30;14.40;99.90
7290;DHT22;63176;52.678;13.250;2022-10-23T17:03:56;14.30;99.90
7290;DHT22;63176;52.678;13.250;2022-10-23T17:06:27;14.30;99.90
7290;DHT22;63176;52.678;13.250;2022-10-23T17:08:54;14.60;99.90
7290;DHT22;63176;52.678;13.250;2022-10-23T17:11:23;14.30;99.90
7290;DHT22;63176;52.678;13.250;2022-10-23T17:14:00;14.30;99.90
7290;DHT22;63176;52.678;13.250;2022-10-23T17:16:31;14.30;99.90
7290;DHT22;63176;52.678;13.250;2022-10-23T17:18:59;14.30;99.90
7290;DHT22;63176;52.678;13.250;2022-10-23T17:21:25;14.30;99.90
7290;DHT22;63176;52.678;13.250;2022-10-23T17:23:51;14.40;99.90
7290;DHT22;63176;52.678;13.250;2022-10-23T17:26:20;14.40;99.90
7290;DHT22;63176;52.678;13.250;2022-10-23T17:28:46;14.40;99.90
7290;DHT22;63176;52.678;13.250;2022-10-23T17:31:20;14.40;99.90
7290;DHT22;63176;52.678;13.250;2022-10-23T17:33:49;14.30;99.90
7290;DHT22;63176;52.678;13.250;2022-10-23T17:36:16;14.30;99.90
7290;DHT22;63176;52.678;13.250;2022-10-23T17:38:42;14.40;99.90
7290;DHT22;63176;52.678;13.250;2022-10-23T17:41:09;14.30;99.90
7290;DHT22;63176;52.678;13.250;2022-10-23T17:43:35;14.30;99.90
7290;DHT22;63176;52.678;13.250;2022-10-23T17:46:03;14.30;99.90
7290;DHT22;63176;52.678;13.250;2022-10-23T17:48:29;14.30;99.90